Time;durP1;ratioP1;P1;durP2;ratioP2;P2;SDS_P1;SDS_P2;PMS_P1;PMS_P2;Temp;Humidity;BMP_temperature;BMP_pressure;BME280_temperature;BME280_humidity;BME280_pressure;Samples;Min_cycle;Max_cycle;Signal;HPM_P1;HPM_P2
2022/06/10 00:01:04;;;;;;;7.97;2.23;;;13.50;99.90;;;;;;6206213;23;20898;-89
2022/06/10 00:03:31;;;;;;;5.50;1.70;;;13.50;99.90;;;;;;6181299;23;20244;-89
2022/06/10 00:06:00;;;;;;;3.00;2.13;;;13.50;99.90;;;;;;6181526;23;20171;-89
2022/06/10 00:08:32;;;;;;;3.40;2.17;;;13.40;99.90;;;;;;6206859;23;20186;-89
2022/06/10 00:10:59;;;;;;;5.97;2.30;;;13.40;99.90;;;;;;6207016;23;20615;-89
2022/06/10 00:13:28;;;;;;;5.60;2.30;;;13.40;99.90;;;;;;6206127;23;20197;-91
2022/06/10 00:15:55;;;;;;;5.13;2.10;;;13.40;99.90;;;;;;6207273;23;20699;-90
2022/06/10 00:18:23;;;;;;;4.23;2.30;;;13.40;99.90;;;;;;6206986;23;20162;-91
2022/06/10 00:20:48;;;;;;;6.37;2.40;;;13.40;99.90;;;;;;6207580;23;20161;-89
2022/06/10 00:23:14;;;;;;;5.03;2.50;;;13.40;99.90;;;;;;6206425;23;20194;-90
2022/06/10 00:25:40;;;;;;;7.87;3.37;;;13.30;99.90;;;;;;6155931;23;20496;-91
2022/06/10 00:28:07;;;;;;;7.17;2.07;;;13.30;99.90;;;;;;6181239;23;20329;-89
2022/06/10 00:30:34;;;;;;;3.37;2.30;;;13.30;99.90;;;;;;6180544;23;20197;-89
2022/06/10 00:33:00;;;;;;;9.77;3.67;;;13.30;99.90;;;;;;6206868;23;20194;-90
2022/06/10 00:35:27;;;;;;;6.03;2.47;;;13.20;99.90;;;;;;6206080;23;20186;-90
2022/06/10 00:37:53;;;;;;;7.80;3.33;;;13.20;99.90;;;;;;6207854;23;20205;-89
2022/06/10 00:40:28;;;;;;;4.57;2.23;;;13.10;99.90;;;;;;6208336;23;20248;-90
2022/06/10 00:42:56;;;;;;;3.33;2.27;;;13.10;99.90;;;;;;6206372;23;20204;-91
2022/06/10 00:45:50;;;;;;;4.57;1.83;;;13.10;99.90;;;;;;6208063;23;20615;-91
2022/06/10 00:48:25;;;;;;;5.00;2.33;;;13.10;99.90;;;;;;6208102;23;20162;-90
2022/06/10 00:50:51;;;;;;;2.13;1.93;;;13.00;99.90;;;;;;6210322;23;20173;-91
2022/06/10 00:53:20;;;;;;;5.70;2.53;;;13.00;99.90;;;;;;6183067;23;20216;-90
2022/06/10 00:55:47;;;;;;;5.33;2.17;;;13.00;99.90;;;;;;6207657;23;20201;-91
2022/06/10 00:58:24;;;;;;;7.40;2.97;;;13.00;99.90;;;;;;6207785;23;20707;-90
2022/06/10 01:00:50;;;;;;;3.50;2.30;;;13.00;99.90;;;;;;6208132;23;20194;-89
2022/06/10 01:03:16;;;;;;;1.90;1.80;;;12.90;99.90;;;;;;6207530;23;20158;-90
2022/06/10 01:05:42;;;;;;;5.30;3.07;;;12.80;99.90;;;;;;6208246;23;20193;-89
2022/06/10 01:08:13;;;;;;;3.73;2.53;;;12.80;99.90;;;;;;6183283;23;20260;-90
2022/06/10 01:11:02;;;;;;;4.00;2.30;;;12.80;99.90;;;;;;6207531;23;20245;-90
2022/06/10 01:13:47;;;;;;;6.33;3.23;;;12.70;99.90;;;;;;6207980;23;20194;-90
2022/06/10 01:16:41;;;;;;;4.77;1.73;;;12.70;99.90;;;;;;6208537;23;20206;-90
2022/06/10 01:19:46;;;;;;;5.83;2.27;;;12.70;99.90;;;;;;6209550;23;20194;-90
2022/06/10 01:22:14;;;;;;;2.57;1.93;;;12.70;99.90;;;;;;6209270;23;20704;-88
2022/06/10 01:24:43;;;;;;;3.60;1.83;;;12.60;99.90;;;;;;6209061;23;20221;-89
2022/06/10 01:27:48;;;;;;;4.47;2.83;;;12.40;99.90;;;;;;6207468;23;20169;-89
2022/06/10 01:30:17;;;;;;;4.80;2.07;;;12.20;99.90;;;;;;6207477;23;20204;-90
2022/06/10 01:33:20;;;;;;;6.70;2.00;;;12.10;99.90;;;;;;6207897;23;20468;-89
2022/06/10 01:35:46;;;;;;;5.17;2.20;;;12.10;99.90;;;;;;6209015;23;20216;-87
2022/06/10 01:38:31;;;;;;;4.43;3.37;;;12.10;99.90;;;;;;6207273;23;20210;-89
2022/06/10 01:41:27;;;;;;;3.23;2.83;;;12.10;99.90;;;;;;6208819;23;20213;-89
2022/06/10 01:44:09;;;;;;;3.47;2.07;;;12.10;99.90;;;;;;6208757;23;20202;-90
2022/06/10 01:46:39;;;;;;;6.93;2.50;;;12.20;99.90;;;;;;6208621;23;20220;-89
2022/06/10 01:49:05;;;;;;;2.83;1.87;;;12.20;99.90;;;;;;6207663;23;20194;-89
2022/06/10 01:51:43;;;;;;;2.53;2.10;;;12.30;99.90;;;;;;6209336;23;20675;-89
2022/06/10 01:54:32;;;;;;;4.27;2.10;;;12.30;99.90;;;;;;6207787;23;20146;-90
2022/06/10 01:57:02;;;;;;;4.03;2.03;;;12.40;99.90;;;;;;6209591;23;20213;-90
2022/06/10 01:59:34;;;;;;;2.30;2.00;;;12.50;99.90;;;;;;6207931;23;20182;-89
2022/06/10 02:02:10;;;;;;;3.63;1.83;;;12.60;99.90;;;;;;6209023;23;20194;-90
2022/06/10 02:04:42;;;;;;;4.13;1.97;;;12.70;99.90;;;;;;6207553;23;20323;-88
2022/06/10 02:07:35;;;;;;;4.47;2.50;;;12.70;99.90;;;;;;6207445;23;20202;-89
2022/06/10 02:10:09;;;;;;;9.23;2.70;;;12.80;99.90;;;;;;6207378;23;20643;-89
2022/06/10 02:12:40;;;;;;;5.97;2.17;;;12.80;99.90;;;;;;6206647;23;20204;-88
2022/06/10 02:15:26;;;;;;;2.57;2.27;;;12.80;99.90;;;;;;6207328;23;20468;-89
2022/06/10 02:18:15;;;;;;;6.50;2.57;;;12.80;99.90;;;;;;6207139;23;20174;-90
2022/06/10 02:20:47;;;;;;;3.07;1.77;;;12.90;99.90;;;;;;6207309;23;20201;-90
2022/06/10 02:23:19;;;;;;;7.90;2.77;;;12.80;99.90;;;;;;6207006;23;20210;-87
2022/06/10 02:25:49;;;;;;;8.73;2.37;;;12.90;99.90;;;;;;6206696;23;20197;-88
2022/06/10 02:28:20;;;;;;;3.33;2.47;;;12.90;99.90;;;;;;6206743;23;20190;-88
2022/06/10 02:31:02;;;;;;;5.13;2.17;;;12.90;99.90;;;;;;6206952;23;20205;-89
2022/06/10 02:33:27;;;;;;;2.53;2.07;;;12.90;99.90;;;;;;6207042;23;20704;-89
2022/06/10 02:36:03;;;;;;;5.07;2.03;;;13.00;99.90;;;;;;6207350;23;20221;-89
2022/06/10 02:38:56;;;;;;;9.20;2.50;;;13.00;99.90;;;;;;6206680;23;20213;-88
2022/06/10 02:41:54;;;;;;;4.60;2.07;;;13.00;99.90;;;;;;6206869;23;20282;-88
2022/06/10 02:44:24;;;;;;;12.57;2.80;;;13.00;99.90;;;;;;6177786;23;20205;-89
2022/06/10 02:46:49;;;;;;;3.20;1.93;;;13.10;99.90;;;;;;6206376;23;20198;-89
2022/06/10 02:49:18;;;;;;;2.93;2.00;;;13.10;99.90;;;;;;6206968;23;20202;-88
2022/06/10 02:51:47;;;;;;;11.83;2.87;;;13.10;99.90;;;;;;6206309;23;20198;-87
2022/06/10 02:54:28;;;;;;;1.70;1.60;;;13.10;99.90;;;;;;6206073;23;20158;-88
2022/06/10 02:56:54;;;;;;;7.13;1.53;;;13.20;99.90;;;;;;6206662;23;20253;-88
2022/06/10 03:02:04;;;;;;;2.97;1.43;;;13.20;99.90;;;;;;6208053;23;20548;-88
2022/06/10 03:04:49;;;;;;;10.53;1.47;;;13.30;99.90;;;;;;6206338;23;20209;-89
2022/06/10 03:07:34;;;;;;;3.47;1.67;;;13.40;99.90;;;;;;6206973;23;20194;-88
2022/06/10 03:10:23;;;;;;;3.30;1.07;;;13.40;99.90;;;;;;6207311;23;20272;-90
2022/06/10 03:13:26;;;;;;;1.90;1.13;;;13.50;99.90;;;;;;6206606;23;20197;-87
2022/06/10 03:16:16;;;;;;;6.57;2.03;;;13.50;99.90;;;;;;6206491;23;20209;-88
2022/06/10 03:19:13;;;;;;;6.97;1.77;;;13.50;99.90;;;;;;6207572;23;20217;-89
2022/06/10 03:21:48;;;;;;;2.93;1.60;;;13.50;99.90;;;;;;6207962;23;20201;-89
2022/06/10 03:24:23;;;;;;;12.10;1.83;;;13.60;99.90;;;;;;6206715;23;20244;-89
2022/06/10 03:27:04;;;;;;;9.37;1.97;;;13.60;99.90;;;;;;6207425;23;20166;-90
2022/06/10 03:29:33;;;;;;;8.60;2.23;;;13.60;99.90;;;;;;6206978;23;20597;-87
2022/06/10 03:32:06;;;;;;;3.67;2.30;;;13.60;99.90;;;;;;6208115;23;20202;-87
2022/06/10 03:34:39;;;;;;;13.70;2.07;;;13.70;99.90;;;;;;6206089;23;20217;-88
2022/06/10 03:37:07;;;;;;;5.57;1.87;;;13.80;99.90;;;;;;6206214;23;20209;-88
2022/06/10 03:39:34;;;;;;;2.70;1.53;;;13.80;99.90;;;;;;6207728;23;20217;-90
2022/06/10 03:42:05;;;;;;;3.67;3.47;;;13.90;99.90;;;;;;6207694;23;20456;-90
2022/06/10 03:44:31;;;;;;;6.40;1.67;;;13.90;99.90;;;;;;6206799;23;20200;-89
2022/06/10 03:46:57;;;;;;;5.60;1.67;;;14.00;99.90;;;;;;6181428;23;20258;-88
2022/06/10 03:49:33;;;;;;;6.77;1.40;;;14.00;99.90;;;;;;6206011;23;20958;-89
2022/06/10 03:52:00;;;;;;;12.87;2.43;;;14.00;99.90;;;;;;6206134;23;20189;-89
2022/06/10 03:54:26;;;;;;;8.47;2.00;;;14.10;99.90;;;;;;6205916;23;20197;-88
2022/06/10 03:56:52;;;;;;;2.23;2.03;;;14.10;99.90;;;;;;6205665;23;20204;-88
2022/06/10 03:59:19;;;;;;;3.50;1.93;;;14.20;99.90;;;;;;6205661;23;20568;-87
2022/06/10 04:01:45;;;;;;;3.77;1.70;;;14.20;99.90;;;;;;6205845;23;20243;-87
2022/06/10 04:04:11;;;;;;;8.37;3.03;;;14.20;99.90;;;;;;6205605;23;20220;-88
2022/06/10 04:06:37;;;;;;;7.00;1.47;;;14.20;99.90;;;;;;6205224;23;20198;-87
2022/06/10 04:09:04;;;;;;;2.13;1.73;;;14.10;99.90;;;;;;6205614;23;20799;-88
2022/06/10 04:11:30;;;;;;;4.67;2.30;;;14.20;99.90;;;;;;6206284;23;20487;-89
2022/06/10 04:13:55;;;;;;;3.00;1.50;;;14.20;99.90;;;;;;6156125;23;20656;-86
2022/06/10 04:16:21;;;;;;;4.47;2.17;;;14.20;99.90;;;;;;6181309;23;20213;-88
2022/06/10 04:18:47;;;;;;;4.13;1.87;;;14.30;99.90;;;;;;6205564;23;20220;-90
2022/06/10 04:21:12;;;;;;;1.87;1.53;;;14.30;99.90;;;;;;6180623;23;20535;-89
2022/06/10 04:23:38;;;;;;;10.60;2.23;;;14.40;99.90;;;;;;6156811;23;20158;-90
2022/06/10 04:26:04;;;;;;;5.03;2.27;;;14.40;99.90;;;;;;6156661;23;20202;-87
2022/06/10 04:28:30;;;;;;;10.70;2.80;;;14.30;99.90;;;;;;6205774;23;20948;-89
2022/06/10 04:30:56;;;;;;;2.77;2.03;;;14.40;99.90;;;;;;6205820;23;20210;-89
2022/06/10 04:33:22;;;;;;;2.33;2.13;;;14.40;99.90;;;;;;6155957;23;20189;-88
2022/06/10 04:35:50;;;;;;;3.77;2.60;;;14.40;99.90;;;;;;6180720;23;20667;-88
2022/06/10 04:38:20;;;;;;;5.43;2.10;;;14.50;99.90;;;;;;6180495;23;20214;-88
2022/06/10 04:40:48;;;;;;;2.20;1.60;;;14.50;99.90;;;;;;6206010;23;20255;-89
2022/06/10 04:43:14;;;;;;;5.27;2.17;;;14.60;99.90;;;;;;6206097;23;20344;-89
2022/06/10 04:45:45;;;;;;;4.63;1.53;;;14.60;99.90;;;;;;6180232;23;20645;-88
2022/06/10 04:48:11;;;;;;;3.73;1.73;;;14.60;99.90;;;;;;6205920;23;20178;-91
2022/06/10 04:50:37;;;;;;;5.37;1.57;;;14.60;99.90;;;;;;6182271;23;20215;-90
2022/06/10 04:53:03;;;;;;;4.33;1.80;;;14.70;99.90;;;;;;6206406;23;20190;-89
2022/06/10 04:55:29;;;;;;;1.83;1.70;;;14.70;99.90;;;;;;6156367;23;20526;-89
2022/06/10 04:57:55;;;;;;;8.20;2.27;;;14.70;99.90;;;;;;6181198;23;20535;-89
2022/06/10 05:00:27;;;;;;;2.67;2.00;;;14.70;99.90;;;;;;6206037;23;20193;-89
2022/06/10 05:02:53;;;;;;;2.40;1.50;;;14.70;99.90;;;;;;6206779;23;20265;-90
2022/06/10 05:05:20;;;;;;;2.87;1.43;;;14.70;99.90;;;;;;6180827;23;20218;-90
2022/06/10 05:07:45;;;;;;;6.33;2.13;;;14.90;99.90;;;;;;6206552;23;20194;-90
2022/06/10 05:10:13;;;;;;;3.07;1.90;;;15.00;99.90;;;;;;6155924;23;20300;-89
2022/06/10 05:12:39;;;;;;;2.50;1.70;;;15.20;99.90;;;;;;6207114;23;20197;-89
2022/06/10 05:15:05;;;;;;;1.90;1.33;;;15.30;99.90;;;;;;6207631;23;20161;-89
2022/06/10 05:17:30;;;;;;;3.10;1.90;;;15.50;99.90;;;;;;6156747;23;20201;-88
2022/06/10 05:19:56;;;;;;;2.27;1.77;;;15.70;99.90;;;;;;6155328;23;20225;-89
2022/06/10 05:22:22;;;;;;;5.43;1.90;;;16.00;99.90;;;;;;6206132;23;20531;-88
2022/06/10 05:24:48;;;;;;;4.13;2.50;;;16.20;99.90;;;;;;6182450;23;20205;-90
2022/06/10 05:27:14;;;;;;;2.03;1.23;;;16.40;99.90;;;;;;6207337;23;20875;-89
2022/06/10 05:29:39;;;;;;;3.30;1.57;;;16.50;99.90;;;;;;6158600;23;20190;-88
2022/06/10 05:32:05;;;;;;;2.13;1.50;;;16.40;99.90;;;;;;6158232;23;20214;-89
2022/06/10 05:34:46;;;;;;;3.60;2.00;;;16.20;99.90;;;;;;6182780;23;20244;-91
2022/06/10 05:37:24;;;;;;;4.30;1.53;;;16.10;99.90;;;;;;6164006;23;20206;-89
2022/06/10 05:39:52;;;;;;;5.53;1.80;;;16.00;99.90;;;;;;6207638;23;20201;-90
2022/06/10 05:42:18;;;;;;;3.50;2.33;;;16.10;99.90;;;;;;6182805;23;20689;-89
2022/06/10 05:44:49;;;;;;;4.53;1.60;;;16.10;99.90;;;;;;6207670;23;20161;-89
2022/06/10 05:47:19;;;;;;;5.97;2.27;;;16.00;99.90;;;;;;6207883;23;20267;-90
2022/06/10 05:49:48;;;;;;;1.97;1.83;;;16.00;99.90;;;;;;6206867;23;20198;-91
2022/06/10 05:52:16;;;;;;;7.13;2.30;;;16.00;99.90;;;;;;6207534;23;20205;-89
2022/06/10 05:54:44;;;;;;;6.03;2.50;;;16.00;99.90;;;;;;6182736;23;20204;-89
2022/06/10 05:57:11;;;;;;;7.40;2.50;;;15.90;99.90;;;;;;6207235;23;20186;-92
2022/06/10 05:59:37;;;;;;;11.43;3.53;;;15.80;99.90;;;;;;6208840;23;20162;-91
2022/06/10 06:02:05;;;;;;;5.30;2.40;;;15.80;99.90;;;;;;6207902;23;20201;-94
2022/06/10 06:04:31;;;;;;;2.23;2.03;;;15.80;99.90;;;;;;6209031;23;20194;-93
2022/06/10 06:06:57;;;;;;;3.17;1.67;;;15.80;99.90;;;;;;6182706;23;20306;-93
2022/06/10 06:09:23;;;;;;;6.70;2.27;;;15.80;99.90;;;;;;6181949;23;20625;-95
2022/06/10 06:11:50;;;;;;;1.60;1.50;;;15.80;99.90;;;;;;6183789;23;20170;-93
2022/06/10 06:14:18;;;;;;;3.57;2.37;;;15.80;99.90;;;;;;6182173;23;20229;-94
2022/06/10 06:16:51;;;;;;;4.83;2.00;;;16.00;99.90;;;;;;6207976;23;20583;-94
2022/06/10 06:19:17;;;;;;;2.90;2.30;;;16.10;99.90;;;;;;6207944;23;20285;-94
2022/06/10 06:21:43;;;;;;;7.53;2.80;;;16.20;99.90;;;;;;6207302;23;20281;-93
2022/06/10 06:24:09;;;;;;;4.40;2.17;;;16.30;99.90;;;;;;6182242;23;20185;-93
2022/06/10 06:26:35;;;;;;;7.00;3.40;;;16.50;99.90;;;;;;6208272;23;20489;-93
2022/06/10 06:29:01;;;;;;;4.27;2.50;;;16.60;99.90;;;;;;6184901;23;20202;-92
2022/06/10 06:31:27;;;;;;;4.50;2.47;;;16.70;99.90;;;;;;6189959;23;20198;-96
2022/06/10 06:33:53;;;;;;;9.27;3.80;;;16.80;99.90;;;;;;6215349;23;20269;-95
2022/06/10 06:36:23;;;;;;;5.93;2.80;;;16.90;99.90;;;;;;6210354;23;20236;-94
2022/06/10 06:38:49;;;;;;;11.73;2.90;;;17.00;99.90;;;;;;6207999;23;20595;-90
2022/06/10 06:41:16;;;;;;;8.30;3.43;;;17.00;99.90;;;;;;6207863;23;20238;-93
2022/06/10 06:43:42;;;;;;;7.13;3.77;;;16.90;99.90;;;;;;6207617;23;20956;-92
2022/06/10 06:46:11;;;;;;;8.33;3.07;;;16.90;99.90;;;;;;6207242;23;20293;-92
2022/06/10 06:48:37;;;;;;;4.93;3.03;;;17.00;99.90;;;;;;6182507;23;20965;-92
2022/06/10 06:51:03;;;;;;;4.93;3.27;;;17.00;99.90;;;;;;6207305;23;20218;-94
2022/06/10 06:53:29;;;;;;;4.70;3.43;;;17.00;99.90;;;;;;6183470;23;20644;-92
2022/06/10 06:55:54;;;;;;;5.97;3.40;;;17.10;99.90;;;;;;6157274;23;20208;-91
2022/06/10 06:58:20;;;;;;;7.33;3.40;;;17.20;99.90;;;;;;6182313;23;20261;-95
2022/06/10 07:00:47;;;;;;;5.17;2.83;;;17.20;99.90;;;;;;6207458;23;20198;-93
2022/06/10 07:03:12;;;;;;;4.13;2.37;;;17.20;99.90;;;;;;6181821;23;20271;-92
2022/06/10 07:05:38;;;;;;;6.40;3.47;;;17.10;99.90;;;;;;6209022;23;20907;-91
2022/06/10 07:08:04;;;;;;;3.63;3.03;;;17.10;99.90;;;;;;6208137;23;20197;-92
2022/06/10 07:10:30;;;;;;;3.50;2.40;;;17.10;99.90;;;;;;6157272;23;20248;-93
2022/06/10 07:12:56;;;;;;;6.30;3.03;;;17.20;99.90;;;;;;6182190;23;20202;-93
2022/06/10 07:15:23;;;;;;;2.93;2.20;;;17.20;99.90;;;;;;6208246;23;20629;-92
2022/06/10 07:17:49;;;;;;;5.50;3.17;;;17.10;99.90;;;;;;6207189;23;20224;-91
2022/06/10 07:20:28;;;;;;;6.33;3.17;;;17.10;99.90;;;;;;6181737;23;20202;-91
2022/06/10 07:22:54;;;;;;;4.33;2.60;;;17.10;99.90;;;;;;6206424;23;20229;-91
2022/06/10 07:25:21;;;;;;;5.30;3.13;;;17.00;99.90;;;;;;6207018;23;20198;-92
2022/06/10 07:27:47;;;;;;;3.33;2.63;;;17.00;99.90;;;;;;6206320;23;20301;-92
2022/06/10 07:30:15;;;;;;;4.60;3.30;;;16.90;99.90;;;;;;6206596;23;20162;-90
2022/06/10 07:32:43;;;;;;;4.07;2.83;;;17.00;99.90;;;;;;6182587;23;20597;-90
2022/06/10 07:35:09;;;;;;;5.37;3.23;;;17.00;99.90;;;;;;6206261;23;20202;-90
2022/06/10 07:37:35;;;;;;;4.77;3.07;;;17.00;99.90;;;;;;6206073;23;20218;-90
2022/06/10 07:40:01;;;;;;;4.50;3.27;;;16.90;99.90;;;;;;6206479;23;20292;-90
2022/06/10 07:42:27;;;;;;;4.70;3.03;;;16.80;99.90;;;;;;6205750;23;20670;-91
2022/06/10 07:44:54;;;;;;;3.07;2.20;;;16.80;99.90;;;;;;6157358;23;20162;-89
2022/06/10 07:47:21;;;;;;;5.77;2.90;;;16.70;99.90;;;;;;6157183;23;20293;-89
2022/06/10 07:49:46;;;;;;;9.03;3.47;;;16.70;99.90;;;;;;6206186;23;20221;-90
2022/06/10 07:52:13;;;;;;;4.73;2.63;;;16.70;99.90;;;;;;6156687;23;20202;-90
2022/06/10 07:54:39;;;;;;;4.33;3.27;;;16.80;99.90;;;;;;6206297;23;20410;-89
2022/06/10 07:57:07;;;;;;;5.23;4.00;;;16.80;99.90;;;;;;6180852;23;20288;-89
2022/06/10 07:59:33;;;;;;;5.97;3.13;;;16.70;99.90;;;;;;6205268;23;20162;-90
2022/06/10 08:01:59;;;;;;;6.03;3.30;;;16.70;99.90;;;;;;6179428;23;20247;-91
2022/06/10 08:04:25;;;;;;;6.53;3.30;;;16.70;99.90;;;;;;6204437;23;20193;-91
2022/06/10 08:06:51;;;;;;;6.53;3.97;;;16.90;99.90;;;;;;6155657;23;20288;-90
2022/06/10 08:09:20;;;;;;;5.03;3.67;;;16.90;99.90;;;;;;6180236;23;20163;-91
2022/06/10 08:11:47;;;;;;;6.87;3.80;;;17.00;99.90;;;;;;6181889;23;20162;-92
2022/06/10 08:14:14;;;;;;;4.43;3.33;;;17.00;99.90;;;;;;6155413;23;20198;-91
2022/06/10 08:16:40;;;;;;;3.87;3.47;;;17.00;99.90;;;;;;6179678;23;20257;-89
2022/06/10 08:19:05;;;;;;;5.27;3.40;;;17.00;99.90;;;;;;6205592;23;20633;-90
2022/06/10 08:24:17;;;;;;;4.00;3.43;;;17.20;99.90;;;;;;6204749;23;20150;-90
2022/06/10 08:26:43;;;;;;;6.43;3.77;;;17.10;99.90;;;;;;6206764;23;20158;-92
2022/06/10 08:29:10;;;;;;;4.60;3.73;;;17.20;99.90;;;;;;6203341;23;20244;-91
2022/06/10 08:31:36;;;;;;;5.77;3.53;;;17.10;99.90;;;;;;6179609;23;20197;-91
2022/06/10 08:34:03;;;;;;;7.33;4.27;;;17.00;99.90;;;;;;6205087;23;20205;-91
2022/06/10 08:36:30;;;;;;;4.90;3.97;;;16.90;99.90;;;;;;6204972;23;20300;-91
2022/06/10 08:38:57;;;;;;;4.93;4.10;;;16.90;99.90;;;;;;6206516;23;20244;-92
2022/06/10 08:41:45;;;;;;;5.53;3.80;;;16.80;99.90;;;;;;6179854;23;20352;-90
2022/06/10 08:44:43;;;;;;;6.17;4.83;;;16.90;99.90;;;;;;6206756;23;20507;-90
2022/06/10 08:47:40;;;;;;;7.83;5.13;;;17.00;99.90;;;;;;6163586;23;20225;-91
2022/06/10 08:50:25;;;;;;;8.03;4.37;;;17.20;99.90;;;;;;6202051;23;20272;-89
2022/06/10 08:52:59;;;;;;;13.60;5.97;;;17.50;99.90;;;;;;6203903;23;20198;-90
2022/06/10 08:55:38;;;;;;;9.27;5.20;;;17.70;99.90;;;;;;6205557;23;20201;-91
2022/06/10 08:58:13;;;;;;;8.50;4.87;;;17.80;99.90;;;;;;6206790;23;20263;-90
2022/06/10 09:00:41;;;;;;;5.40;4.23;;;17.70;99.90;;;;;;6205604;23;20239;-88
2022/06/10 09:03:36;;;;;;;8.03;5.53;;;17.80;99.90;;;;;;6205936;23;20269;-90
2022/06/10 09:06:06;;;;;;;9.17;4.87;;;17.90;99.90;;;;;;6206988;23;20154;-90
2022/06/10 09:08:37;;;;;;;11.03;5.90;;;18.20;99.90;;;;;;6208680;23;20177;-90
2022/06/10 09:11:17;;;;;;;12.37;5.90;;;18.60;99.90;;;;;;6207009;23;20198;-91
2022/06/10 09:14:09;;;;;;;14.77;6.23;;;18.90;99.90;;;;;;6207806;23;20198;-90
2022/06/10 09:16:47;;;;;;;7.37;4.60;;;19.00;99.90;;;;;;6208142;23;20206;-91
2022/06/10 09:19:44;;;;;;;7.87;4.83;;;19.00;99.90;;;;;;6206301;23;20205;-92
2022/06/10 09:22:22;;;;;;;9.67;4.60;;;18.80;99.90;;;;;;6206968;23;20225;-92
2022/06/10 09:24:55;;;;;;;9.10;4.80;;;18.50;99.90;;;;;;6205626;23;20529;-91
2022/06/10 09:27:30;;;;;;;9.33;5.40;;;18.40;99.90;;;;;;6207072;23;20150;-92
2022/06/10 09:29:57;;;;;;;8.17;4.77;;;18.30;99.90;;;;;;6206698;23;20261;-90
2022/06/10 09:32:28;;;;;;;6.13;5.00;;;18.40;99.90;;;;;;6207789;23;20189;-91
2022/06/10 09:35:12;;;;;;;9.90;5.47;;;18.40;99.90;;;;;;6206715;23;20198;-94
2022/06/10 09:38:10;;;;;;;9.03;6.07;;;18.60;99.90;;;;;;6211234;23;20216;-94
2022/06/10 09:40:42;;;;;;;8.50;5.17;;;18.90;99.90;;;;;;6208902;23;20204;-89
2022/06/10 09:43:29;;;;;;;12.00;6.33;;;19.10;99.90;;;;;;6209602;23;20197;-90
2022/06/10 09:46:02;;;;;;;5.67;4.77;;;19.00;99.90;;;;;;6206548;23;20198;-93
2022/06/10 09:49:07;;;;;;;4.57;4.07;;;19.00;99.90;;;;;;6207387;23;20190;-93
2022/06/10 09:51:36;;;;;;;9.20;5.47;;;19.10;99.90;;;;;;6208695;23;20190;-96
2022/06/10 09:54:09;;;;;;;9.90;5.77;;;19.10;99.90;;;;;;6209969;23;20158;-92
2022/06/10 09:56:50;;;;;;;13.50;6.30;;;18.80;99.90;;;;;;6209447;23;20197;-93
2022/06/10 09:59:24;;;;;;;7.50;5.47;;;18.80;99.90;;;;;;6206780;23;20297;-92
2022/06/10 10:02:17;;;;;;;9.57;5.60;;;18.90;99.90;;;;;;6207273;23;20202;-92
2022/06/10 10:04:46;;;;;;;11.37;6.30;;;18.90;99.90;;;;;;6207734;23;20202;-93
2022/06/10 10:08:02;;;;;;;8.93;5.73;;;19.40;99.90;;;;;;6208448;23;20268;-93
2022/06/10 10:10:37;;;;;;;11.13;6.30;;;19.60;99.90;;;;;;6063937;23;20279;-92
2022/06/10 10:13:24;;;;;;;8.77;4.90;;;19.60;99.90;;;;;;6191318;23;20201;-92
2022/06/10 10:16:08;;;;;;;7.30;5.23;;;19.20;99.90;;;;;;6207016;23;20208;-93
2022/06/10 10:18:47;;;;;;;7.33;5.60;;;19.10;99.90;;;;;;6211006;23;20201;-93
2022/06/10 10:21:18;;;;;;;8.37;5.33;;;18.80;99.90;;;;;;6209392;23;20150;-94
2022/06/10 10:23:47;;;;;;;13.83;5.57;;;18.80;99.90;;;;;;6208182;23;20154;-93
2022/06/10 10:26:17;;;;;;;7.57;5.93;;;18.80;99.90;;;;;;6208016;23;20208;-91
2022/06/10 10:28:45;;;;;;;6.80;5.53;;;18.80;99.90;;;;;;6207813;23;20218;-92
2022/06/10 10:31:49;;;;;;;7.50;4.97;;;19.00;99.90;;;;;;6158270;23;20190;-95
2022/06/10 10:34:22;;;;;;;6.50;4.47;;;18.90;99.90;;;;;;6174052;23;20190;-93
2022/06/10 10:36:57;;;;;;;7.97;4.03;;;18.70;99.90;;;;;;6208860;23;20214;-93
2022/06/10 10:39:34;;;;;;;9.67;4.33;;;18.70;99.90;;;;;;6208763;23;20269;-92
2022/06/10 10:42:13;;;;;;;6.50;5.10;;;18.70;99.90;;;;;;6209583;23;20261;-94
2022/06/10 10:44:45;;;;;;;4.97;4.47;;;18.60;99.90;;;;;;6207390;23;20205;-92
2022/06/10 10:47:10;;;;;;;9.80;5.27;;;18.70;99.90;;;;;;6208904;23;20198;-94
2022/06/10 10:49:43;;;;;;;9.37;4.70;;;18.90;99.90;;;;;;6206721;23;21098;-94
2022/06/10 10:52:23;;;;;;;7.47;6.10;;;19.30;99.90;;;;;;6207771;23;20208;-92
2022/06/10 10:55:11;;;;;;;12.57;5.47;;;19.60;99.90;;;;;;6209076;23;20228;-96
2022/06/10 10:57:40;;;;;;;7.13;4.53;;;19.80;99.90;;;;;;6183956;23;20295;-95
2022/06/10 11:00:11;;;;;;;6.30;4.17;;;19.70;99.90;;;;;;6185605;23;20383;-91
2022/06/10 11:03:01;;;;;;;7.30;3.70;;;19.50;99.90;;;;;;6208960;23;20173;-93
2022/06/10 11:05:36;;;;;;;7.00;3.40;;;19.30;99.90;;;;;;6210362;23;20170;-94
2022/06/10 11:08:30;;;;;;;3.83;3.33;;;19.30;99.90;;;;;;6207310;23;20201;-93
2022/06/10 11:10:59;;;;;;;4.80;3.00;;;19.10;99.90;;;;;;6207560;23;20244;-95
2022/06/10 11:13:44;;;;;;;5.03;4.37;;;19.30;99.90;;;;;;6208958;23;20202;-94
2022/06/10 11:16:27;;;;;;;5.50;4.03;;;19.70;99.90;;;;;;6207215;23;20469;-95
2022/06/10 11:19:23;;;;;;;4.23;3.83;;;20.50;99.90;;;;;;6208057;23;20206;-89
2022/06/10 11:22:01;;;;;;;5.33;3.17;;;21.30;99.90;;;;;;6208370;23;20273;-93
2022/06/10 11:24:31;;;;;;;6.60;5.03;;;21.60;99.90;;;;;;6206721;23;20198;-93
2022/06/10 11:26:59;;;;;;;8.27;4.70;;;21.10;99.90;;;;;;6207939;23;20245;-93
2022/06/10 11:29:26;;;;;;;6.53;5.77;;;21.00;99.90;;;;;;6207334;23;20221;-94
2022/06/10 11:32:05;;;;;;;9.63;5.67;;;21.10;99.90;;;;;;6205863;23;20269;-94
2022/06/10 11:34:40;;;;;;;7.90;6.10;;;20.80;99.90;;;;;;6205932;23;20885;-92
2022/06/10 11:37:31;;;;;;;6.13;4.93;;;20.10;99.90;;;;;;6206895;23;20288;-92
2022/06/10 11:40:25;;;;;;;12.00;6.90;;;19.60;99.90;;;;;;6205803;23;20289;-92
2022/06/10 11:42:57;;;;;;;8.90;5.53;;;19.70;99.90;;;;;;6171871;23;20209;-92
2022/06/10 11:45:37;;;;;;;9.10;4.90;;;19.70;99.90;;;;;;6180731;23;20201;-92
2022/06/10 11:48:36;;;;;;;6.60;4.30;;;19.70;99.90;;;;;;6188129;23;20146;-92
2022/06/10 11:51:30;;;;;;;5.57;4.40;;;19.90;99.90;;;;;;6161319;23;20162;-93
2022/06/10 11:54:15;;;;;;;8.53;3.53;;;19.90;99.90;;;;;;6207573;23;20237;-92
2022/06/10 12:00:10;;;;;;;5.30;4.03;;;20.40;99.90;;;;;;6210085;23;20533;-95
2022/06/10 12:02:45;;;;;;;6.80;4.77;;;20.90;99.90;;;;;;6208264;23;20181;-94
2022/06/10 12:05:17;;;;;;;3.87;3.33;;;20.90;99.90;;;;;;6205104;23;20296;-90
2022/06/10 12:07:59;;;;;;;8.10;4.67;;;20.60;99.90;;;;;;6205095;23;20197;-90
2022/06/10 12:10:27;;;;;;;4.90;4.07;;;20.70;99.90;;;;;;6204447;23;20198;-88
2022/06/10 12:12:56;;;;;;;7.57;4.90;;;21.40;99.90;;;;;;6204900;23;20237;-89
2022/06/10 12:15:36;;;;;;;6.67;4.13;;;21.50;99.90;;;;;;6204067;23;20198;-94
2022/06/10 12:18:04;;;;;;;4.40;4.00;;;21.10;99.90;;;;;;6206022;23;20184;-88
2022/06/10 12:20:52;;;;;;;5.70;3.70;;;20.70;99.90;;;;;;6204556;23;20166;-89
2022/06/10 12:23:47;;;;;;;5.03;3.37;;;20.50;99.90;;;;;;6204620;23;20193;-88
2022/06/10 12:26:30;;;;;;;3.47;3.17;;;20.80;99.90;;;;;;6199729;23;20198;-88
2022/06/10 12:29:21;;;;;;;3.33;2.70;;;21.00;99.90;;;;;;6205612;23;20198;-89
2022/06/10 12:32:18;;;;;;;2.60;1.93;;;21.00;99.90;;;;;;6204665;23;20202;-90
2022/06/10 12:34:53;;;;;;;3.07;2.47;;;20.90;99.90;;;;;;6193595;23;20217;-88
2022/06/10 12:37:41;;;;;;;4.13;2.90;;;20.80;99.90;;;;;;6204170;23;20197;-91
2022/06/10 12:40:17;;;;;;;4.50;3.17;;;20.70;99.90;;;;;;6204586;23;20609;-89
2022/06/10 12:42:49;;;;;;;3.87;2.53;;;20.90;99.90;;;;;;6203229;23;20232;-89
2022/06/10 12:45:27;;;;;;;4.60;3.10;;;21.00;99.90;;;;;;6205130;23;20446;-89
2022/06/10 12:47:56;;;;;;;2.57;2.27;;;20.70;99.90;;;;;;6204531;23;20672;-88
2022/06/10 12:50:42;;;;;;;5.33;2.10;;;20.90;99.90;;;;;;6204364;23;20194;-88
2022/06/10 12:53:20;;;;;;;4.67;2.03;;;21.40;99.90;;;;;;6202280;23;20201;-90
2022/06/10 12:55:50;;;;;;;3.10;1.70;;;21.50;99.90;;;;;;6203625;23;21008;-90
2022/06/10 12:58:38;;;;;;;2.80;1.70;;;21.70;99.90;;;;;;6205168;23;20205;-90
2022/06/10 13:01:12;;;;;;;4.87;2.20;;;22.20;99.90;;;;;;6203947;23;20524;-90
2022/06/10 13:03:40;;;;;;;5.77;1.50;;;21.40;99.90;;;;;;6205409;23;20513;-89
2022/06/10 13:06:42;;;;;;;12.53;2.43;;;21.20;99.90;;;;;;6203167;23;20154;-90
2022/06/10 13:09:11;;;;;;;2.40;1.20;;;21.10;99.90;;;;;;6203007;23;20249;-90
2022/06/10 13:12:06;;;;;;;2.53;1.50;;;21.30;99.90;;;;;;6205078;23;20158;-93
2022/06/10 13:14:34;;;;;;;5.63;2.07;;;21.60;99.90;;;;;;6146791;23;20212;-90
2022/06/10 13:17:23;;;;;;;6.40;1.77;;;21.50;99.90;;;;;;6202144;23;20205;-86
2022/06/10 13:19:54;;;;;;;7.23;2.30;;;21.80;99.90;;;;;;6202824;23;20277;-87
2022/06/10 13:22:22;;;;;;;4.63;1.70;;;22.60;99.90;;;;;;6176186;23;20194;-88
2022/06/10 13:24:54;;;;;;;8.68;2.10;;;22.30;99.90;;;;;;6193849;23;20221;-89
2022/06/10 13:27:20;;;;;;;7.23;2.13;;;22.00;99.90;;;;;;6202063;23;20173;-90